sensor_id;sensor_type;location;lat;lon;timestamp;P1;durP1;ratioP1;P2;durP2;ratioP2
64487;SDS011;50864;45.050;39.014;2023-03-01T00:01:31;7.57;;;4.32;;
64487;SDS011;50864;45.050;39.014;2023-03-01T00:03:57;7.65;;;4.25;;
64487;SDS011;50864;45.050;39.014;2023-03-01T00:06:23;10.02;;;5.05;;
64487;SDS011;50864;45.050;39.014;2023-03-01T00:08:49;7.97;;;4.68;;
64487;SDS011;50864;45.050;39.014;2023-03-01T00:11:25;9.80;;;5.25;;
64487;SDS011;50864;45.050;39.014;2023-03-01T00:13:52;7.90;;;4.75;;
64487;SDS011;50864;45.050;39.014;2023-03-01T00:16:22;8.50;;;4.80;;
64487;SDS011;50864;45.050;39.014;2023-03-01T00:18:48;9.25;;;4.95;;
64487;SDS011;50864;45.050;39.014;2023-03-01T00:21:13;9.13;;;4.28;;
64487;SDS011;50864;45.050;39.014;2023-03-01T00:23:39;10.20;;;5.43;;
64487;SDS011;50864;45.050;39.014;2023-03-01T00:26:06;11.07;;;4.97;;
64487;SDS011;50864;45.050;39.014;2023-03-01T00:28:32;9.23;;;5.15;;
64487;SDS011;50864;45.050;39.014;2023-03-01T00:31:08;8.50;;;4.72;;
64487;SDS011;50864;45.050;39.014;2023-03-01T00:33:33;11.00;;;4.78;;
64487;SDS011;50864;45.050;39.014;2023-03-01T00:36:00;9.07;;;4.75;;
64487;SDS011;50864;45.050;39.014;2023-03-01T00:38:25;9.55;;;5.45;;
64487;SDS011;50864;45.050;39.014;2023-03-01T00:40:51;7.03;;;3.87;;
64487;SDS011;50864;45.050;39.014;2023-03-01T00:43:17;12.00;;;5.90;;
64487;SDS011;50864;45.050;39.014;2023-03-01T00:45:43;9.48;;;5.28;;
64487;SDS011;50864;45.050;39.014;2023-03-01T00:48:08;11.18;;;5.18;;
64487;SDS011;50864;45.050;39.014;2023-03-01T00:50:34;8.38;;;4.30;;
64487;SDS011;50864;45.050;39.014;2023-03-01T00:53:01;10.80;;;4.90;;
64487;SDS011;50864;45.050;39.014;2023-03-01T00:55:26;9.75;;;5.25;;
64487;SDS011;50864;45.050;39.014;2023-03-01T00:57:52;8.20;;;4.62;;
64487;SDS011;50864;45.050;39.014;2023-03-01T01:00:18;9.55;;;5.37;;
64487;SDS011;50864;45.050;39.014;2023-03-01T01:02:45;9.93;;;4.97;;
64487;SDS011;50864;45.050;39.014;2023-03-01T01:05:12;9.88;;;5.80;;
64487;SDS011;50864;45.050;39.014;2023-03-01T01:07:38;9.93;;;5.68;;
64487;SDS011;50864;45.050;39.014;2023-03-01T01:10:03;9.68;;;4.70;;
64487;SDS011;50864;45.050;39.014;2023-03-01T01:12:31;8.10;;;4.80;;
64487;SDS011;50864;45.050;39.014;2023-03-01T01:14:57;10.95;;;6.00;;
64487;SDS011;50864;45.050;39.014;2023-03-01T01:17:22;11.05;;;5.75;;
64487;SDS011;50864;45.050;39.014;2023-03-01T01:19:48;9.98;;;5.30;;
64487;SDS011;50864;45.050;39.014;2023-03-01T01:22:14;9.20;;;4.95;;
64487;SDS011;50864;45.050;39.014;2023-03-01T01:24:39;11.02;;;5.62;;
64487;SDS011;50864;45.050;39.014;2023-03-01T01:27:05;11.40;;;5.70;;
64487;SDS011;50864;45.050;39.014;2023-03-01T01:29:32;9.55;;;5.00;;
64487;SDS011;50864;45.050;39.014;2023-03-01T01:31:58;6.45;;;3.72;;
64487;SDS011;50864;45.050;39.014;2023-03-01T01:34:24;11.95;;;5.95;;
64487;SDS011;50864;45.050;39.014;2023-03-01T01:36:52;8.23;;;4.97;;
64487;SDS011;50864;45.050;39.014;2023-03-01T01:39:21;12.35;;;6.40;;
64487;SDS011;50864;45.050;39.014;2023-03-01T01:41:47;7.30;;;4.45;;
64487;SDS011;50864;45.050;39.014;2023-03-01T01:44:26;10.70;;;5.75;;
64487;SDS011;50864;45.050;39.014;2023-03-01T01:46:56;8.77;;;4.40;;
64487;SDS011;50864;45.050;39.014;2023-03-01T01:49:24;12.30;;;6.80;;
64487;SDS011;50864;45.050;39.014;2023-03-01T01:51:51;10.85;;;6.43;;
64487;SDS011;50864;45.050;39.014;2023-03-01T01:54:23;12.77;;;7.12;;
64487;SDS011;50864;45.050;39.014;2023-03-01T01:56:51;11.70;;;6.72;;
64487;SDS011;50864;45.050;39.014;2023-03-01T01:59:18;11.75;;;6.30;;
64487;SDS011;50864;45.050;39.014;2023-03-01T02:01:44;10.15;;;5.10;;
64487;SDS011;50864;45.050;39.014;2023-03-01T02:04:10;15.52;;;6.57;;
64487;SDS011;50864;45.050;39.014;2023-03-01T02:06:41;9.15;;;5.35;;
64487;SDS011;50864;45.050;39.014;2023-03-01T02:09:10;11.10;;;6.62;;
64487;SDS011;50864;45.050;39.014;2023-03-01T02:11:38;8.48;;;4.97;;
64487;SDS011;50864;45.050;39.014;2023-03-01T02:14:03;10.57;;;5.30;;
64487;SDS011;50864;45.050;39.014;2023-03-01T02:16:29;12.68;;;5.62;;
64487;SDS011;50864;45.050;39.014;2023-03-01T02:18:56;12.55;;;6.37;;
64487;SDS011;50864;45.050;39.014;2023-03-01T02:23:54;9.10;;;5.20;;
64487;SDS011;50864;45.050;39.014;2023-03-01T02:26:23;8.75;;;5.18;;
64487;SDS011;50864;45.050;39.014;2023-03-01T02:28:51;13.88;;;6.00;;
64487;SDS011;50864;45.050;39.014;2023-03-01T02:31:17;12.82;;;6.53;;
64487;SDS011;50864;45.050;39.014;2023-03-01T02:34:03;12.35;;;6.28;;
64487;SDS011;50864;45.050;39.014;2023-03-01T02:36:36;12.27;;;6.40;;
64487;SDS011;50864;45.050;39.014;2023-03-01T02:39:04;10.63;;;4.90;;
64487;SDS011;50864;45.050;39.014;2023-03-01T02:41:33;10.27;;;5.35;;
64487;SDS011;50864;45.050;39.014;2023-03-01T02:44:00;12.07;;;6.40;;
64487;SDS011;50864;45.050;39.014;2023-03-01T02:46:27;10.70;;;5.55;;
64487;SDS011;50864;45.050;39.014;2023-03-01T02:48:55;11.85;;;6.07;;
64487;SDS011;50864;45.050;39.014;2023-03-01T02:56:15;14.80;;;8.13;;
64487;SDS011;50864;45.050;39.014;2023-03-01T02:58:41;12.70;;;7.03;;
64487;SDS011;50864;45.050;39.014;2023-03-01T03:01:11;12.48;;;7.18;;
64487;SDS011;50864;45.050;39.014;2023-03-01T03:03:38;12.37;;;6.78;;
64487;SDS011;50864;45.050;39.014;2023-03-01T03:06:04;13.18;;;7.12;;
64487;SDS011;50864;45.050;39.014;2023-03-01T03:08:30;14.63;;;7.87;;
64487;SDS011;50864;45.050;39.014;2023-03-01T03:10:56;12.88;;;7.05;;
64487;SDS011;50864;45.050;39.014;2023-03-01T03:13:21;15.07;;;7.10;;
64487;SDS011;50864;45.050;39.014;2023-03-01T03:15:47;12.88;;;6.82;;
64487;SDS011;50864;45.050;39.014;2023-03-01T03:18:15;13.10;;;7.28;;
64487;SDS011;50864;45.050;39.014;2023-03-01T03:20:41;14.23;;;7.28;;
64487;SDS011;50864;45.050;39.014;2023-03-01T03:23:07;15.23;;;7.65;;
64487;SDS011;50864;45.050;39.014;2023-03-01T03:25:32;13.43;;;7.12;;
64487;SDS011;50864;45.050;39.014;2023-03-01T03:28:03;13.80;;;7.43;;
64487;SDS011;50864;45.050;39.014;2023-03-01T03:30:35;16.23;;;7.90;;
64487;SDS011;50864;45.050;39.014;2023-03-01T03:33:02;15.38;;;7.15;;
64487;SDS011;50864;45.050;39.014;2023-03-01T03:35:31;16.35;;;7.90;;
64487;SDS011;50864;45.050;39.014;2023-03-01T03:37:57;15.32;;;7.82;;
64487;SDS011;50864;45.050;39.014;2023-03-01T03:40:27;11.65;;;6.20;;
64487;SDS011;50864;45.050;39.014;2023-03-01T03:42:53;16.35;;;8.30;;
64487;SDS011;50864;45.050;39.014;2023-03-01T03:45:18;14.20;;;7.65;;
64487;SDS011;50864;45.050;39.014;2023-03-01T03:47:44;16.15;;;7.43;;
64487;SDS011;50864;45.050;39.014;2023-03-01T03:50:11;12.57;;;7.22;;
64487;SDS011;50864;45.050;39.014;2023-03-01T03:52:37;11.73;;;6.47;;
64487;SDS011;50864;45.050;39.014;2023-03-01T03:55:03;14.63;;;7.22;;
64487;SDS011;50864;45.050;39.014;2023-03-01T03:57:28;13.45;;;7.37;;
64487;SDS011;50864;45.050;39.014;2023-03-01T03:59:54;13.68;;;6.82;;
64487;SDS011;50864;45.050;39.014;2023-03-01T04:02:20;14.70;;;7.78;;
64487;SDS011;50864;45.050;39.014;2023-03-01T04:04:48;15.25;;;7.70;;
64487;SDS011;50864;45.050;39.014;2023-03-01T04:07:17;14.93;;;8.48;;
64487;SDS011;50864;45.050;39.014;2023-03-01T04:09:43;16.12;;;7.80;;
64487;SDS011;50864;45.050;39.014;2023-03-01T04:12:09;15.10;;;7.47;;
64487;SDS011;50864;45.050;39.014;2023-03-01T04:14:35;14.52;;;7.75;;
64487;SDS011;50864;45.050;39.014;2023-03-01T04:17:01;24.75;;;7.80;;
64487;SDS011;50864;45.050;39.014;2023-03-01T04:19:27;17.20;;;8.05;;
64487;SDS011;50864;45.050;39.014;2023-03-01T04:21:53;11.20;;;6.62;;
64487;SDS011;50864;45.050;39.014;2023-03-01T04:24:18;14.25;;;6.87;;
64487;SDS011;50864;45.050;39.014;2023-03-01T04:26:44;12.55;;;5.45;;
64487;SDS011;50864;45.050;39.014;2023-03-01T04:29:10;10.77;;;5.95;;
64487;SDS011;50864;45.050;39.014;2023-03-01T04:31:35;14.05;;;7.30;;
64487;SDS011;50864;45.050;39.014;2023-03-01T04:34:01;14.80;;;7.55;;
64487;SDS011;50864;45.050;39.014;2023-03-01T04:36:28;17.05;;;8.18;;
64487;SDS011;50864;45.050;39.014;2023-03-01T04:38:54;14.43;;;7.50;;
64487;SDS011;50864;45.050;39.014;2023-03-01T04:41:21;14.15;;;7.28;;
64487;SDS011;50864;45.050;39.014;2023-03-01T04:43:47;20.00;;;8.07;;
64487;SDS011;50864;45.050;39.014;2023-03-01T04:46:14;11.75;;;6.18;;
64487;SDS011;50864;45.050;39.014;2023-03-01T04:48:41;13.75;;;6.47;;
64487;SDS011;50864;45.050;39.014;2023-03-01T04:51:07;18.60;;;7.32;;
64487;SDS011;50864;45.050;39.014;2023-03-01T04:53:33;9.73;;;5.28;;
64487;SDS011;50864;45.050;39.014;2023-03-01T04:56:02;16.77;;;7.57;;
64487;SDS011;50864;45.050;39.014;2023-03-01T04:58:27;16.85;;;7.70;;
64487;SDS011;50864;45.050;39.014;2023-03-01T05:00:53;16.95;;;7.07;;
64487;SDS011;50864;45.050;39.014;2023-03-01T05:03:20;9.73;;;5.50;;
64487;SDS011;50864;45.050;39.014;2023-03-01T05:05:46;9.50;;;4.75;;
64487;SDS011;50864;45.050;39.014;2023-03-01T05:08:12;13.50;;;7.05;;
64487;SDS011;50864;45.050;39.014;2023-03-01T05:10:47;13.23;;;6.07;;
64487;SDS011;50864;45.050;39.014;2023-03-01T05:13:13;14.20;;;7.20;;
64487;SDS011;50864;45.050;39.014;2023-03-01T05:15:40;14.48;;;7.32;;
64487;SDS011;50864;45.050;39.014;2023-03-01T05:18:06;21.23;;;7.32;;
64487;SDS011;50864;45.050;39.014;2023-03-01T05:20:37;16.40;;;7.07;;
64487;SDS011;50864;45.050;39.014;2023-03-01T05:23:02;15.48;;;6.97;;
64487;SDS011;50864;45.050;39.014;2023-03-01T05:25:31;13.60;;;6.85;;
64487;SDS011;50864;45.050;39.014;2023-03-01T05:28:02;11.68;;;5.90;;
64487;SDS011;50864;45.050;39.014;2023-03-01T05:30:33;14.73;;;7.87;;
64487;SDS011;50864;45.050;39.014;2023-03-01T05:32:59;12.25;;;6.68;;
64487;SDS011;50864;45.050;39.014;2023-03-01T05:35:25;9.50;;;4.55;;
64487;SDS011;50864;45.050;39.014;2023-03-01T05:37:51;12.15;;;7.05;;
64487;SDS011;50864;45.050;39.014;2023-03-01T05:40:18;16.87;;;7.43;;
64487;SDS011;50864;45.050;39.014;2023-03-01T05:42:49;15.48;;;6.37;;
64487;SDS011;50864;45.050;39.014;2023-03-01T05:45:15;12.00;;;6.47;;
64487;SDS011;50864;45.050;39.014;2023-03-01T05:47:42;11.90;;;6.62;;
64487;SDS011;50864;45.050;39.014;2023-03-01T05:52:36;12.15;;;6.93;;
64487;SDS011;50864;45.050;39.014;2023-03-01T05:55:02;13.85;;;6.62;;
64487;SDS011;50864;45.050;39.014;2023-03-01T05:57:28;13.05;;;6.12;;
64487;SDS011;50864;45.050;39.014;2023-03-01T05:59:54;13.27;;;6.93;;
64487;SDS011;50864;45.050;39.014;2023-03-01T06:02:20;13.90;;;8.13;;
64487;SDS011;50864;45.050;39.014;2023-03-01T06:04:46;14.82;;;7.68;;
64487;SDS011;50864;45.050;39.014;2023-03-01T06:07:11;16.20;;;7.78;;
64487;SDS011;50864;45.050;39.014;2023-03-01T06:09:37;14.65;;;7.25;;
64487;SDS011;50864;45.050;39.014;2023-03-01T06:12:03;14.63;;;7.70;;
64487;SDS011;50864;45.050;39.014;2023-03-01T06:14:28;16.42;;;6.87;;
64487;SDS011;50864;45.050;39.014;2023-03-01T06:16:54;12.45;;;6.55;;
64487;SDS011;50864;45.050;39.014;2023-03-01T06:19:21;15.63;;;8.23;;
64487;SDS011;50864;45.050;39.014;2023-03-01T06:21:47;14.57;;;7.07;;
64487;SDS011;50864;45.050;39.014;2023-03-01T06:24:12;14.60;;;8.38;;
64487;SDS011;50864;45.050;39.014;2023-03-01T06:26:38;16.02;;;8.32;;
64487;SDS011;50864;45.050;39.014;2023-03-01T06:29:04;14.48;;;7.35;;
64487;SDS011;50864;45.050;39.014;2023-03-01T06:31:29;14.68;;;8.00;;
64487;SDS011;50864;45.050;39.014;2023-03-01T06:33:55;15.30;;;8.35;;
64487;SDS011;50864;45.050;39.014;2023-03-01T06:36:21;9.48;;;6.00;;
64487;SDS011;50864;45.050;39.014;2023-03-01T06:38:47;11.77;;;6.78;;
64487;SDS011;50864;45.050;39.014;2023-03-01T06:41:13;16.52;;;7.70;;
64487;SDS011;50864;45.050;39.014;2023-03-01T06:43:38;14.23;;;7.90;;
64487;SDS011;50864;45.050;39.014;2023-03-01T06:46:05;15.82;;;8.15;;
64487;SDS011;50864;45.050;39.014;2023-03-01T06:48:32;12.20;;;6.28;;
64487;SDS011;50864;45.050;39.014;2023-03-01T06:50:59;13.55;;;7.55;;
64487;SDS011;50864;45.050;39.014;2023-03-01T06:53:26;14.25;;;7.28;;
64487;SDS011;50864;45.050;39.014;2023-03-01T06:55:56;15.88;;;7.25;;
64487;SDS011;50864;45.050;39.014;2023-03-01T06:58:21;11.98;;;6.32;;
64487;SDS011;50864;45.050;39.014;2023-03-01T07:00:47;12.98;;;6.25;;
64487;SDS011;50864;45.050;39.014;2023-03-01T07:03:13;15.43;;;7.10;;
64487;SDS011;50864;45.050;39.014;2023-03-01T07:05:38;17.52;;;8.60;;
64487;SDS011;50864;45.050;39.014;2023-03-01T07:08:04;14.05;;;8.18;;
64487;SDS011;50864;45.050;39.014;2023-03-01T07:10:30;17.30;;;7.10;;
64487;SDS011;50864;45.050;39.014;2023-03-01T07:12:56;19.40;;;9.40;;
64487;SDS011;50864;45.050;39.014;2023-03-01T07:15:22;10.88;;;6.15;;
64487;SDS011;50864;45.050;39.014;2023-03-01T07:17:47;12.85;;;6.30;;
64487;SDS011;50864;45.050;39.014;2023-03-01T07:20:16;14.55;;;7.82;;
64487;SDS011;50864;45.050;39.014;2023-03-01T07:22:41;16.05;;;8.10;;
64487;SDS011;50864;45.050;39.014;2023-03-01T07:25:08;14.32;;;8.13;;
64487;SDS011;50864;45.050;39.014;2023-03-01T07:27:34;16.02;;;7.85;;
64487;SDS011;50864;45.050;39.014;2023-03-01T07:30:00;14.13;;;6.90;;
64487;SDS011;50864;45.050;39.014;2023-03-01T07:32:26;15.68;;;7.82;;
64487;SDS011;50864;45.050;39.014;2023-03-01T07:34:51;22.60;;;8.07;;
64487;SDS011;50864;45.050;39.014;2023-03-01T07:37:17;16.50;;;8.07;;
64487;SDS011;50864;45.050;39.014;2023-03-01T07:39:43;15.32;;;6.93;;
64487;SDS011;50864;45.050;39.014;2023-03-01T07:42:08;14.55;;;6.75;;
64487;SDS011;50864;45.050;39.014;2023-03-01T07:44:34;14.60;;;7.37;;
64487;SDS011;50864;45.050;39.014;2023-03-01T07:47:00;15.15;;;8.02;;
64487;SDS011;50864;45.050;39.014;2023-03-01T07:49:26;9.77;;;5.85;;
64487;SDS011;50864;45.050;39.014;2023-03-01T07:51:52;8.32;;;5.25;;
64487;SDS011;50864;45.050;39.014;2023-03-01T07:54:18;13.43;;;6.62;;
64487;SDS011;50864;45.050;39.014;2023-03-01T07:56:43;9.02;;;5.10;;
64487;SDS011;50864;45.050;39.014;2023-03-01T07:59:09;11.00;;;6.00;;
64487;SDS011;50864;45.050;39.014;2023-03-01T08:01:35;14.90;;;7.20;;
64487;SDS011;50864;45.050;39.014;2023-03-01T08:04:01;9.80;;;5.65;;
64487;SDS011;50864;45.050;39.014;2023-03-01T08:06:27;12.50;;;6.80;;
64487;SDS011;50864;45.050;39.014;2023-03-01T08:08:52;12.43;;;6.93;;
64487;SDS011;50864;45.050;39.014;2023-03-01T08:11:20;10.43;;;5.82;;
64487;SDS011;50864;45.050;39.014;2023-03-01T08:13:49;13.13;;;7.15;;
64487;SDS011;50864;45.050;39.014;2023-03-01T08:16:15;15.70;;;7.87;;
64487;SDS011;50864;45.050;39.014;2023-03-01T08:18:41;12.15;;;7.30;;
64487;SDS011;50864;45.050;39.014;2023-03-01T08:21:11;12.80;;;7.15;;
64487;SDS011;50864;45.050;39.014;2023-03-01T08:23:38;11.63;;;6.57;;
64487;SDS011;50864;45.050;39.014;2023-03-01T08:26:05;12.57;;;7.25;;
64487;SDS011;50864;45.050;39.014;2023-03-01T08:28:31;11.88;;;6.37;;
64487;SDS011;50864;45.050;39.014;2023-03-01T08:30:57;12.90;;;7.30;;
64487;SDS011;50864;45.050;39.014;2023-03-01T08:33:23;15.63;;;7.47;;
64487;SDS011;50864;45.050;39.014;2023-03-01T08:35:48;11.05;;;6.62;;
64487;SDS011;50864;45.050;39.014;2023-03-01T08:38:14;10.95;;;6.85;;
64487;SDS011;50864;45.050;39.014;2023-03-01T08:40:40;13.80;;;7.95;;
64487;SDS011;50864;45.050;39.014;2023-03-01T08:43:05;11.73;;;7.28;;
64487;SDS011;50864;45.050;39.014;2023-03-01T08:45:31;12.13;;;7.28;;
64487;SDS011;50864;45.050;39.014;2023-03-01T08:47:57;12.40;;;7.12;;
64487;SDS011;50864;45.050;39.014;2023-03-01T08:50:23;12.02;;;7.85;;
64487;SDS011;50864;45.050;39.014;2023-03-01T08:52:49;12.73;;;7.43;;
64487;SDS011;50864;45.050;39.014;2023-03-01T08:55:15;13.27;;;7.22;;
64487;SDS011;50864;45.050;39.014;2023-03-01T08:57:42;17.67;;;7.82;;
64487;SDS011;50864;45.050;39.014;2023-03-01T09:00:08;12.05;;;6.80;;
64487;SDS011;50864;45.050;39.014;2023-03-01T09:02:34;9.32;;;5.43;;
64487;SDS011;50864;45.050;39.014;2023-03-01T09:05:00;13.95;;;7.78;;
64487;SDS011;50864;45.050;39.014;2023-03-01T09:07:26;14.20;;;7.90;;
64487;SDS011;50864;45.050;39.014;2023-03-01T09:09:54;11.63;;;6.47;;
64487;SDS011;50864;45.050;39.014;2023-03-01T09:12:20;10.85;;;6.32;;
64487;SDS011;50864;45.050;39.014;2023-03-01T09:14:46;11.63;;;6.43;;
64487;SDS011;50864;45.050;39.014;2023-03-01T09:17:12;15.48;;;7.62;;
64487;SDS011;50864;45.050;39.014;2023-03-01T09:19:37;13.07;;;7.12;;
64487;SDS011;50864;45.050;39.014;2023-03-01T09:22:03;10.85;;;6.30;;
64487;SDS011;50864;45.050;39.014;2023-03-01T09:24:30;13.68;;;7.50;;
64487;SDS011;50864;45.050;39.014;2023-03-01T09:26:56;14.80;;;7.90;;
64487;SDS011;50864;45.050;39.014;2023-03-01T09:29:21;13.62;;;7.03;;
64487;SDS011;50864;45.050;39.014;2023-03-01T09:31:47;15.15;;;7.82;;
64487;SDS011;50864;45.050;39.014;2023-03-01T09:34:13;10.30;;;5.57;;
64487;SDS011;50864;45.050;39.014;2023-03-01T09:36:41;15.23;;;6.80;;
64487;SDS011;50864;45.050;39.014;2023-03-01T09:39:07;10.73;;;6.25;;
64487;SDS011;50864;45.050;39.014;2023-03-01T09:44:03;11.57;;;6.60;;
64487;SDS011;50864;45.050;39.014;2023-03-01T09:46:36;9.25;;;5.62;;
64487;SDS011;50864;45.050;39.014;2023-03-01T09:49:04;9.55;;;5.47;;
64487;SDS011;50864;45.050;39.014;2023-03-01T09:51:33;16.87;;;8.18;;
64487;SDS011;50864;45.050;39.014;2023-03-01T09:54:01;10.82;;;5.57;;
64487;SDS011;50864;45.050;39.014;2023-03-01T09:56:32;19.50;;;6.90;;
64487;SDS011;50864;45.050;39.014;2023-03-01T09:59:17;9.30;;;5.80;;
64487;SDS011;50864;45.050;39.014;2023-03-01T10:06:49;11.70;;;6.25;;
64487;SDS011;50864;45.050;39.014;2023-03-01T10:09:16;10.15;;;4.93;;
64487;SDS011;50864;45.050;39.014;2023-03-01T10:11:45;10.98;;;6.40;;
64487;SDS011;50864;45.050;39.014;2023-03-01T10:16:57;13.32;;;5.68;;
64487;SDS011;50864;45.050;39.014;2023-03-01T10:21:54;11.65;;;6.60;;
64487;SDS011;50864;45.050;39.014;2023-03-01T10:24:23;16.55;;;7.32;;
64487;SDS011;50864;45.050;39.014;2023-03-01T10:29:14;13.93;;;6.03;;
64487;SDS011;50864;45.050;39.014;2023-03-01T10:34:30;11.05;;;5.53;;
64487;SDS011;50864;45.050;39.014;2023-03-01T10:37:01;11.05;;;5.60;;
64487;SDS011;50864;45.050;39.014;2023-03-01T10:44:34;10.13;;;5.85;;
64487;SDS011;50864;45.050;39.014;2023-03-01T10:47:00;10.55;;;5.90;;
64487;SDS011;50864;45.050;39.014;2023-03-01T10:49:29;9.13;;;4.68;;
64487;SDS011;50864;45.050;39.014;2023-03-01T10:51:55;9.27;;;5.57;;
64487;SDS011;50864;45.050;39.014;2023-03-01T10:54:32;10.05;;;6.00;;
64487;SDS011;50864;45.050;39.014;2023-03-01T10:56:59;16.92;;;6.25;;
64487;SDS011;50864;45.050;39.014;2023-03-01T10:59:26;12.77;;;5.82;;
64487;SDS011;50864;45.050;39.014;2023-03-01T11:04:27;13.82;;;6.68;;
64487;SDS011;50864;45.050;39.014;2023-03-01T11:07:00;9.73;;;5.15;;
64487;SDS011;50864;45.050;39.014;2023-03-01T11:09:25;9.93;;;5.53;;
64487;SDS011;50864;45.050;39.014;2023-03-01T11:11:56;12.43;;;4.75;;
64487;SDS011;50864;45.050;39.014;2023-03-01T11:14:22;10.85;;;5.68;;
64487;SDS011;50864;45.050;39.014;2023-03-01T11:16:49;12.63;;;5.37;;
64487;SDS011;50864;45.050;39.014;2023-03-01T11:19:23;8.65;;;4.80;;
64487;SDS011;50864;45.050;39.014;2023-03-01T11:24:37;12.48;;;5.90;;
64487;SDS011;50864;45.050;39.014;2023-03-01T11:27:05;12.18;;;5.25;;
64487;SDS011;50864;45.050;39.014;2023-03-01T11:32:01;10.25;;;5.80;;
64487;SDS011;50864;45.050;39.014;2023-03-01T11:36:59;13.85;;;5.87;;
64487;SDS011;50864;45.050;39.014;2023-03-01T11:42:42;11.43;;;5.53;;
64487;SDS011;50864;45.050;39.014;2023-03-01T11:44:42;13.50;;;5.93;;
64487;SDS011;50864;45.050;39.014;2023-03-01T12:03:11;11.68;;;6.12;;
64487;SDS011;50864;45.050;39.014;2023-03-01T12:29:54;11.50;;;5.30;;
64487;SDS011;50864;45.050;39.014;2023-03-01T12:32:40;8.30;;;4.65;;
64487;SDS011;50864;45.050;39.014;2023-03-01T12:48:40;11.05;;;5.20;;
64487;SDS011;50864;45.050;39.014;2023-03-01T12:51:08;10.45;;;4.12;;
64487;SDS011;50864;45.050;39.014;2023-03-01T12:53:39;6.03;;;3.37;;
64487;SDS011;50864;45.050;39.014;2023-03-01T12:56:05;7.30;;;4.43;;
64487;SDS011;50864;45.050;39.014;2023-03-01T12:58:32;8.18;;;4.47;;
64487;SDS011;50864;45.050;39.014;2023-03-01T13:06:32;8.93;;;4.68;;
64487;SDS011;50864;45.050;39.014;2023-03-01T13:11:28;10.63;;;5.05;;
64487;SDS011;50864;45.050;39.014;2023-03-01T13:16:40;11.88;;;5.55;;
64487;SDS011;50864;45.050;39.014;2023-03-01T13:19:20;14.77;;;6.25;;
64487;SDS011;50864;45.050;39.014;2023-03-01T13:21:47;12.10;;;5.62;;
64487;SDS011;50864;45.050;39.014;2023-03-01T13:24:23;11.20;;;5.47;;
64487;SDS011;50864;45.050;39.014;2023-03-01T13:29:32;14.30;;;6.00;;
64487;SDS011;50864;45.050;39.014;2023-03-01T13:32:18;18.30;;;9.20;;
64487;SDS011;50864;45.050;39.014;2023-03-01T13:34:48;14.55;;;6.55;;
64487;SDS011;50864;45.050;39.014;2023-03-01T13:37:25;13.43;;;6.82;;
64487;SDS011;50864;45.050;39.014;2023-03-01T13:39:51;11.88;;;6.05;;
64487;SDS011;50864;45.050;39.014;2023-03-01T13:42:37;13.20;;;7.00;;
64487;SDS011;50864;45.050;39.014;2023-03-01T13:45:14;14.48;;;7.47;;
64487;SDS011;50864;45.050;39.014;2023-03-01T13:47:41;12.57;;;6.15;;
64487;SDS011;50864;45.050;39.014;2023-03-01T13:50:15;17.10;;;7.80;;
64487;SDS011;50864;45.050;39.014;2023-03-01T13:53:00;16.30;;;7.35;;
64487;SDS011;50864;45.050;39.014;2023-03-01T13:55:29;12.70;;;6.90;;
64487;SDS011;50864;45.050;39.014;2023-03-01T13:57:57;15.23;;;7.40;;
64487;SDS011;50864;45.050;39.014;2023-03-01T14:00:37;16.65;;;7.57;;
64487;SDS011;50864;45.050;39.014;2023-03-01T14:03:04;13.45;;;7.25;;
64487;SDS011;50864;45.050;39.014;2023-03-01T14:05:31;18.17;;;8.02;;
64487;SDS011;50864;45.050;39.014;2023-03-01T14:07:56;16.62;;;8.45;;
64487;SDS011;50864;45.050;39.014;2023-03-01T14:10:22;20.02;;;7.93;;
64487;SDS011;50864;45.050;39.014;2023-03-01T14:15:39;18.35;;;8.43;;
64487;SDS011;50864;45.050;39.014;2023-03-01T14:18:12;14.87;;;8.75;;
64487;SDS011;50864;45.050;39.014;2023-03-01T14:20:41;17.58;;;9.30;;
64487;SDS011;50864;45.050;39.014;2023-03-01T14:23:11;14.68;;;7.65;;
64487;SDS011;50864;45.050;39.014;2023-03-01T14:25:38;13.65;;;6.95;;
64487;SDS011;50864;45.050;39.014;2023-03-01T14:28:13;18.80;;;8.48;;
64487;SDS011;50864;45.050;39.014;2023-03-01T14:30:44;12.77;;;6.75;;
64487;SDS011;50864;45.050;39.014;2023-03-01T14:33:43;14.27;;;7.50;;
64487;SDS011;50864;45.050;39.014;2023-03-01T14:36:03;21.03;;;8.50;;
64487;SDS011;50864;45.050;39.014;2023-03-01T14:38:31;12.23;;;6.12;;
64487;SDS011;50864;45.050;39.014;2023-03-01T14:40:58;10.30;;;5.87;;
64487;SDS011;50864;45.050;39.014;2023-03-01T14:43:24;11.80;;;6.82;;
64487;SDS011;50864;45.050;39.014;2023-03-01T14:45:51;12.05;;;6.35;;
64487;SDS011;50864;45.050;39.014;2023-03-01T14:48:17;12.32;;;6.78;;
64487;SDS011;50864;45.050;39.014;2023-03-01T14:50:44;12.55;;;6.37;;
64487;SDS011;50864;45.050;39.014;2023-03-01T14:53:20;12.50;;;6.22;;
64487;SDS011;50864;45.050;39.014;2023-03-01T14:55:50;12.95;;;6.40;;
64487;SDS011;50864;45.050;39.014;2023-03-01T14:58:19;13.23;;;6.57;;
64487;SDS011;50864;45.050;39.014;2023-03-01T15:00:52;15.60;;;8.10;;
64487;SDS011;50864;45.050;39.014;2023-03-01T15:03:32;17.17;;;8.93;;
64487;SDS011;50864;45.050;39.014;2023-03-01T15:05:58;12.82;;;7.53;;
64487;SDS011;50864;45.050;39.014;2023-03-01T15:08:25;15.57;;;9.18;;
64487;SDS011;50864;45.050;39.014;2023-03-01T15:10:59;13.27;;;6.72;;
64487;SDS011;50864;45.050;39.014;2023-03-01T15:13:28;29.20;;;12.32;;
64487;SDS011;50864;45.050;39.014;2023-03-01T15:16:00;33.50;;;17.20;;
64487;SDS011;50864;45.050;39.014;2023-03-01T15:18:27;14.52;;;8.52;;
64487;SDS011;50864;45.050;39.014;2023-03-01T15:20:53;14.38;;;7.00;;
64487;SDS011;50864;45.050;39.014;2023-03-01T15:23:26;14.93;;;8.38;;
64487;SDS011;50864;45.050;39.014;2023-03-01T15:25:53;12.13;;;6.72;;
64487;SDS011;50864;45.050;39.014;2023-03-01T15:28:26;14.77;;;7.45;;
64487;SDS011;50864;45.050;39.014;2023-03-01T15:31:02;12.27;;;6.47;;
64487;SDS011;50864;45.050;39.014;2023-03-01T15:33:29;12.70;;;7.22;;
64487;SDS011;50864;45.050;39.014;2023-03-01T15:35:56;13.23;;;5.93;;
64487;SDS011;50864;45.050;39.014;2023-03-01T15:40:50;11.30;;;6.18;;
64487;SDS011;50864;45.050;39.014;2023-03-01T15:46:00;13.40;;;7.32;;
64487;SDS011;50864;45.050;39.014;2023-03-01T15:48:26;13.10;;;7.70;;
64487;SDS011;50864;45.050;39.014;2023-03-01T15:50:56;15.52;;;8.75;;
64487;SDS011;50864;45.050;39.014;2023-03-01T15:53:22;14.30;;;7.22;;
64487;SDS011;50864;45.050;39.014;2023-03-01T15:55:48;15.63;;;8.48;;
64487;SDS011;50864;45.050;39.014;2023-03-01T15:58:18;15.40;;;8.23;;
64487;SDS011;50864;45.050;39.014;2023-03-01T16:00:45;14.95;;;7.55;;
64487;SDS011;50864;45.050;39.014;2023-03-01T16:03:11;20.12;;;9.20;;
64487;SDS011;50864;45.050;39.014;2023-03-01T16:05:37;11.75;;;6.62;;
64487;SDS011;50864;45.050;39.014;2023-03-01T16:08:03;15.38;;;8.95;;
64487;SDS011;50864;45.050;39.014;2023-03-01T16:10:31;18.30;;;9.13;;
64487;SDS011;50864;45.050;39.014;2023-03-01T16:12:56;14.93;;;7.97;;
64487;SDS011;50864;45.050;39.014;2023-03-01T16:15:27;12.60;;;7.80;;
64487;SDS011;50864;45.050;39.014;2023-03-01T16:17:53;15.73;;;8.88;;
64487;SDS011;50864;45.050;39.014;2023-03-01T16:20:20;12.20;;;6.37;;
64487;SDS011;50864;45.050;39.014;2023-03-01T16:22:45;13.98;;;7.20;;
64487;SDS011;50864;45.050;39.014;2023-03-01T16:25:13;18.33;;;7.78;;
64487;SDS011;50864;45.050;39.014;2023-03-01T16:27:38;17.58;;;6.95;;